KMDT/MDT METAR and TAF weather

Enter ICAO airport designator
Station Type Date Time Source
KMDT METAR 2020/11/27 13:56 UTC NOAA

KMDT 271356Z 00000KT 10SM FEW037 SCT047 OVC065 10/07 A3011 RMK AO2 SLP197 T01000072


Station Type Date Time Source
KMDT Decoded METAR 2020/11/27 13:56 UTC NOAA

HARRISBURG INTERNATIONAL AIRPORT, PA, United States (KMDT) 40-12N 076-46W 95M
Nov 27, 2020 - 08:56 AM EST / 2020.11.27 1356 UTC
Wind: Calm:0
Visibility: 10 mile(s):0
Sky conditions: overcast
Temperature: 50.0 F (10.0 C)
Dew Point: 45.0 F (7.2 C)
Relative Humidity: 82%
Pressure (altimeter): 30.11 in. Hg (1019 hPa)
ob: KMDT 271356Z 00000KT 10SM FEW037 SCT047 OVC065 10/07 A3011 RMK AO2 SLP197 T01000072
cycle: 14

Station Type Date Time Source
KMDT TAF 2020/11/27 12:39 UTC NOAA

TAF KMDT 271137Z 2712/2812 30003KT P6SM BKN045

Example: see airport list